Aérodrome :







RETROUVEZ-NOUS SUR...

 
LOGIN :

S'inscrire | Disclaimer

   EN    FR    IT 

 









Légende :    VFR   VFR Marginal   IFR   IFR Intensif   IFR Très Intensif
Visi : 
Plafond : 
>= 8 km
>= 3000ft
5 à 8 km
1000 à 3000 ft
1500m à 5 km
500 à 1000 ft
800 à 1500m
200 à 500 ft
< 800m
< 200 ft
Symboles :   Orages  Brouillard  Fortes neiges  Fortes précipitations  Vent > 20 kt






- Altitude de l'aérodrome : 84 ft
- Code IATA : YJT


CYJT - Stephenville

DERNIER METAR :
  • 151100Z 09005KT 060V150 15SM OVC019 10/09 A2928 RMK SC8 SLP919 DENSITY ALT 300FT

METARs EXPIRÉS :
  • 151000Z 07011KT 15SM BKN020 08/07 A2932 RMK SC7 SLP932
  • 150946Z 08010KT 15SM SCT010 BKN021 08/07 A2933 RMK SF3SC4 SLP936
  • 150900Z 08014G20KT 10SM -RA OVC019 07/06 A2936 RMK SC8 /R20/ PRESFR SLP945
  • 150850Z 07014KT 6SM -RA BR SCT008 OVC019 06/05 A2937 RMK SF4SC4 PRESFR SLP948
  • 150828Z 07016G22KT 6SM RA BR SCT008 OVC020 05/04 A2938 RMK SF4SC4 PRESFR SLP953

TAF AMD TAF CYJT
Valide du 15 à 11h jusqu'au 16 à 06h UTC


151111Z 1511/1606 09005KT WS005/17045KT P6SM BKN025
TEMPO 1511/1520 5SM -DZ BR BKN020
BECMG 1512/1514 18020G30KT
FM152000 22018G28KT 2SM -RA -DZ BR OVC005
FM152300 23025G35KT 5SM -SHRA BR OVC015
FM160200 24025G35KT 4SM -SHRASN BR OVC015
FM160400 26030G40KT 3SM -SHSN BKN025
PROB30 1604/1606 1SM -SHSN BLSN VV008 RMK NXT FCST BY 151200Z



MET'MAP, la Météo Aéronautique d'un coup d'oeil ! - Copyright ORBIFLY Décembre 2007 - Disclaimer

ORBIFLY MET'MAP TEAM :

Programmation & Développement : Alexandra Zaïnal
Sur une idée originale de : Baudouin d'Aumeries
Assistance à la programmation : Marc-Olivier Méhu
Soutien technique & logistique : Manuel Goepfert

Contact : metmap@orbifly.com




SOURCES & CREDITS :

   NOAA